createdAt,value
2023-05-24T00:00:45.142Z,100.00
2023-05-24T00:03:15.419Z,100.00
2023-05-24T00:05:43.969Z,100.00
2023-05-24T00:08:11.473Z,100.00
2023-05-24T00:10:39.209Z,100.00
2023-05-24T00:13:06.962Z,100.00
2023-05-24T00:15:34.085Z,100.00
2023-05-24T00:18:01.440Z,100.00
2023-05-24T00:20:28.746Z,100.00
2023-05-24T00:22:55.958Z,100.00
2023-05-24T00:25:23.232Z,100.00
2023-05-24T00:27:50.939Z,100.00
2023-05-24T00:30:18.205Z,100.00
2023-05-24T00:32:45.542Z,100.00
2023-05-24T00:35:12.720Z,100.00
2023-05-24T00:37:41.977Z,100.00
2023-05-24T00:40:10.037Z,100.00
2023-05-24T00:42:37.508Z,100.00
2023-05-24T00:45:05.024Z,100.00
2023-05-24T00:47:33.187Z,100.00
2023-05-24T00:50:00.679Z,100.00
2023-05-24T00:52:27.878Z,100.00
2023-05-24T00:54:55.229Z,100.00
2023-05-24T00:57:23.968Z,100.00
2023-05-24T00:59:54.499Z,100.00
2023-05-24T01:02:22.317Z,100.00
2023-05-24T01:04:49.500Z,100.00
2023-05-24T01:07:32.697Z,100.00
2023-05-24T01:10:22.260Z,100.00
2023-05-24T01:13:04.274Z,100.00
2023-05-24T01:15:51.103Z,100.00
2023-05-24T01:18:30.317Z,100.00
2023-05-24T01:21:07.080Z,100.00
2023-05-24T01:24:02.365Z,100.00
2023-05-24T01:26:42.390Z,100.00
2023-05-24T01:29:10.350Z,100.00
2023-05-24T01:31:37.988Z,100.00
2023-05-24T01:34:05.144Z,100.00
2023-05-24T01:36:32.348Z,100.00
2023-05-24T01:38:59.520Z,100.00
2023-05-24T01:41:47.550Z,100.00
2023-05-24T01:44:37.686Z,100.00
2023-05-24T01:47:41.535Z,100.00
2023-05-24T01:50:28.139Z,100.00
2023-05-24T01:52:58.806Z,100.00
2023-05-24T01:55:28.250Z,100.00
2023-05-24T01:58:00.705Z,100.00
2023-05-24T02:00:29.130Z,100.00
2023-05-24T02:02:57.775Z,100.00
2023-05-24T02:05:25.122Z,100.00
2023-05-24T02:07:52.460Z,100.00
2023-05-24T02:10:19.871Z,100.00
2023-05-24T02:12:47.026Z,100.00
2023-05-24T02:15:15.371Z,100.00
2023-05-24T02:17:43.368Z,100.00
2023-05-24T02:20:13.398Z,100.00
2023-05-24T02:22:41.519Z,100.00
2023-05-24T02:25:08.845Z,100.00
2023-05-24T02:27:36.128Z,100.00
2023-05-24T02:30:03.492Z,100.00
2023-05-24T02:32:31.403Z,100.00
2023-05-24T02:35:01.990Z,100.00
2023-05-24T02:37:29.109Z,100.00
2023-05-24T02:39:56.306Z,100.00
2023-05-24T02:42:23.478Z,100.00
2023-05-24T02:44:52.577Z,100.00
2023-05-24T02:47:20.051Z,100.00
2023-05-24T02:49:47.293Z,100.00
2023-05-24T02:52:14.807Z,100.00
2023-05-24T02:54:41.956Z,100.00
2023-05-24T02:57:09.111Z,100.00
2023-05-24T02:59:36.548Z,100.00
2023-05-24T03:02:03.801Z,100.00
2023-05-24T03:04:30.980Z,100.00
2023-05-24T03:06:58.128Z,100.00
2023-05-24T03:09:25.466Z,100.00
2023-05-24T03:11:54.452Z,100.00
2023-05-24T03:14:25.116Z,100.00
2023-05-24T03:16:52.394Z,100.00
2023-05-24T03:19:19.712Z,100.00
2023-05-24T03:21:46.886Z,100.00
2023-05-24T03:24:14.594Z,100.00
2023-05-24T03:26:41.701Z,100.00
2023-05-24T03:29:08.879Z,100.00
2023-05-24T03:31:36.501Z,100.00
2023-05-24T03:34:03.651Z,100.00
2023-05-24T03:36:30.926Z,100.00
2023-05-24T03:38:59.131Z,100.00
2023-05-24T03:41:27.624Z,100.00
2023-05-24T03:43:54.843Z,100.00
2023-05-24T03:46:22.599Z,100.00
2023-05-24T03:48:49.937Z,100.00
2023-05-24T03:51:17.161Z,100.00
2023-05-24T03:53:45.744Z,100.00
2023-05-24T03:56:12.859Z,100.00
2023-05-24T03:58:40.014Z,100.00
2023-05-24T04:01:08.199Z,100.00
2023-05-24T04:03:35.412Z,100.00
2023-05-24T04:06:02.700Z,100.00
2023-05-24T04:08:29.903Z,100.00
2023-05-24T04:10:56.998Z,100.00
2023-05-24T04:13:24.164Z,100.00
2023-05-24T04:15:51.386Z,100.00
2023-05-24T04:18:18.661Z,100.00
2023-05-24T04:20:45.866Z,100.00
2023-05-24T04:23:12.990Z,100.00
2023-05-24T04:25:40.177Z,100.00
2023-05-24T04:28:08.467Z,100.00
2023-05-24T04:30:36.927Z,100.00
2023-05-24T04:33:04.201Z,100.00
2023-05-24T04:35:31.459Z,100.00
2023-05-24T04:37:59.793Z,100.00
2023-05-24T04:40:27.079Z,100.00
2023-05-24T04:42:54.193Z,100.00
2023-05-24T04:45:21.444Z,100.00
2023-05-24T04:47:48.603Z,100.00
2023-05-24T04:50:15.994Z,100.00
2023-05-24T04:52:43.291Z,100.00
2023-05-24T04:55:10.618Z,100.00
2023-05-24T04:57:37.702Z,100.00
2023-05-24T05:00:07.411Z,100.00
2023-05-24T05:02:34.675Z,100.00
2023-05-24T05:05:02.070Z,100.00
2023-05-24T05:07:29.229Z,100.00
2023-05-24T05:09:56.963Z,100.00
2023-05-24T05:12:24.106Z,100.00
2023-05-24T05:14:51.881Z,100.00
2023-05-24T05:17:18.980Z,100.00
2023-05-24T05:19:46.152Z,100.00
2023-05-24T05:22:13.312Z,100.00
2023-05-24T05:24:40.429Z,100.00
2023-05-24T05:27:07.818Z,100.00
2023-05-24T05:29:34.971Z,100.00
2023-05-24T05:32:02.121Z,100.00
2023-05-24T05:34:29.208Z,100.00
2023-05-24T05:36:56.397Z,100.00
2023-05-24T05:39:23.504Z,100.00
2023-05-24T05:41:51.011Z,100.00
2023-05-24T05:44:18.539Z,100.00
2023-05-24T05:46:46.392Z,100.00
2023-05-24T05:49:15.508Z,100.00
2023-05-24T05:51:42.713Z,100.00
2023-05-24T05:54:14.401Z,100.00
2023-05-24T05:56:45.800Z,100.00
2023-05-24T05:59:13.176Z,100.00
2023-05-24T06:01:41.133Z,100.00
2023-05-24T06:04:08.394Z,100.00
2023-05-24T06:06:36.205Z,100.00
2023-05-24T06:09:03.573Z,100.00
2023-05-24T06:11:30.679Z,100.00
2023-05-24T06:13:57.845Z,100.00
2023-05-24T06:16:25.018Z,100.00
2023-05-24T06:19:05.567Z,100.00
2023-05-24T06:21:33.948Z,100.00
2023-05-24T06:24:02.792Z,100.00
2023-05-24T06:26:30.382Z,100.00
2023-05-24T06:28:57.484Z,100.00
2023-05-24T06:31:24.787Z,100.00
2023-05-24T06:34:03.918Z,100.00
2023-05-24T06:36:41.231Z,100.00
2023-05-24T06:39:11.993Z,100.00
2023-05-24T06:41:39.875Z,100.00
2023-05-24T06:44:07.693Z,100.00
2023-05-24T06:46:35.125Z,100.00
2023-05-24T06:49:03.194Z,100.00
2023-05-24T06:51:31.220Z,100.00
2023-05-24T06:53:58.418Z,100.00
2023-05-24T06:56:26.926Z,100.00
2023-05-24T06:58:54.104Z,100.00
2023-05-24T07:01:21.256Z,100.00
2023-05-24T07:03:48.456Z,100.00
2023-05-24T07:06:16.325Z,100.00
2023-05-24T07:08:43.496Z,100.00
2023-05-24T07:11:10.699Z,100.00
2023-05-24T07:13:37.890Z,100.00
2023-05-24T07:16:07.197Z,100.00
2023-05-24T07:18:34.433Z,100.00
2023-05-24T07:21:01.719Z,100.00
2023-05-24T07:23:29.203Z,100.00
2023-05-24T07:25:56.646Z,100.00
2023-05-24T07:28:23.970Z,100.00
2023-05-24T07:30:52.327Z,100.00
2023-05-24T07:33:19.966Z,100.00
2023-05-24T07:35:51.392Z,100.00
2023-05-24T07:38:18.842Z,100.00
2023-05-24T07:40:46.218Z,100.00
2023-05-24T07:43:13.484Z,100.00
2023-05-24T07:45:41.137Z,100.00
2023-05-24T07:48:08.614Z,100.00
2023-05-24T07:50:36.405Z,100.00
2023-05-24T07:53:05.271Z,100.00
2023-05-24T07:55:32.436Z,100.00
2023-05-24T07:57:59.637Z,100.00
2023-05-24T08:00:26.962Z,100.00
2023-05-24T08:02:54.298Z,100.00
2023-05-24T08:05:22.245Z,100.00
2023-05-24T08:07:49.432Z,100.00
2023-05-24T08:10:16.905Z,100.00
2023-05-24T08:12:44.759Z,100.00
2023-05-24T08:15:11.934Z,100.00
2023-05-24T08:17:39.392Z,100.00
2023-05-24T08:20:12.586Z,100.00
2023-05-24T08:22:39.737Z,100.00
2023-05-24T08:25:07.636Z,100.00
2023-05-24T08:27:34.861Z,100.00
2023-05-24T08:30:02.085Z,100.00
2023-05-24T08:32:29.484Z,100.00
2023-05-24T08:35:06.645Z,100.00
2023-05-24T08:37:38.133Z,100.00
2023-05-24T08:40:05.855Z,100.00
2023-05-24T08:42:33.453Z,100.00
2023-05-24T08:45:08.521Z,100.00
2023-05-24T08:47:36.860Z,100.00
2023-05-24T08:50:05.489Z,100.00
2023-05-24T08:52:33.130Z,100.00
2023-05-24T08:55:00.704Z,100.00
2023-05-24T08:57:28.447Z,100.00
2023-05-24T08:59:56.227Z,100.00
2023-05-24T09:02:24.382Z,100.00
2023-05-24T09:04:53.138Z,100.00
2023-05-24T09:07:25.016Z,100.00
2023-05-24T09:10:01.133Z,100.00
2023-05-24T09:12:38.195Z,100.00
2023-05-24T09:15:07.609Z,100.00
2023-05-24T09:17:36.444Z,100.00
2023-05-24T09:20:07.530Z,100.00
2023-05-24T09:22:38.135Z,100.00
2023-05-24T09:25:09.609Z,100.00
2023-05-24T09:27:40.457Z,100.00
2023-05-24T09:30:12.883Z,100.00
2023-05-24T09:32:41.430Z,100.00
2023-05-24T09:35:09.836Z,98.51
2023-05-24T09:37:38.830Z,95.44
2023-05-24T09:40:07.971Z,100.00
2023-05-24T09:42:35.206Z,100.00
2023-05-24T09:45:09.536Z,100.00
2023-05-24T09:47:39.444Z,100.00
2023-05-24T09:50:13.223Z,100.00
2023-05-24T09:52:41.130Z,100.00
2023-05-24T09:55:22.930Z,100.00
2023-05-24T09:57:53.459Z,100.00
2023-05-24T10:00:24.057Z,100.00
2023-05-24T10:03:08.206Z,100.00
2023-05-24T10:05:35.905Z,99.63
2023-05-24T10:08:05.184Z,100.00
2023-05-24T10:10:33.665Z,100.00
2023-05-24T10:13:02.036Z,100.00
2023-05-24T10:15:30.783Z,100.00
2023-05-24T10:17:59.166Z,100.00
2023-05-24T10:20:26.824Z,100.00
2023-05-24T10:22:59.839Z,94.71
2023-05-24T10:25:28.624Z,95.52
2023-05-24T10:27:58.720Z,92.78
2023-05-24T10:30:34.464Z,97.68
2023-05-24T10:33:02.818Z,95.38
2023-05-24T10:35:31.674Z,94.33
2023-05-24T10:37:59.734Z,100.00
2023-05-24T10:40:27.003Z,96.46
2023-05-24T10:42:54.816Z,79.11
2023-05-24T10:45:24.703Z,76.96
2023-05-24T10:47:53.764Z,72.37
2023-05-24T10:50:22.338Z,70.51
2023-05-24T10:52:49.756Z,64.69
2023-05-24T10:55:19.570Z,64.82
2023-05-24T10:57:47.474Z,67.79
2023-05-24T11:03:01.557Z,70.26
2023-05-24T11:05:55.419Z,73.77
2023-05-24T11:08:31.015Z,68.48
2023-05-24T11:11:24.402Z,69.73
2023-05-24T11:13:57.511Z,71.64
2023-05-24T11:16:41.211Z,78.06
2023-05-24T11:19:13.258Z,74.03
2023-05-24T11:21:52.276Z,78.65
2023-05-24T11:24:21.404Z,78.39
2023-05-24T11:26:50.324Z,76.69
2023-05-24T11:29:19.544Z,78.63
2023-05-24T11:31:54.202Z,75.55
2023-05-24T11:34:22.179Z,77.00
2023-05-24T11:36:50.110Z,77.42
2023-05-24T11:39:18.120Z,77.21
2023-05-24T11:41:47.505Z,79.90
2023-05-24T11:44:19.589Z,79.97
2023-05-24T11:46:47.438Z,74.37
2023-05-24T11:49:17.622Z,71.77
2023-05-24T11:51:45.449Z,70.80
2023-05-24T11:54:12.719Z,70.65
2023-05-24T11:56:40.167Z,71.44
2023-05-24T11:59:07.922Z,70.77
2023-05-24T12:01:35.283Z,67.75
2023-05-24T12:04:02.598Z,67.82
2023-05-24T12:06:38.207Z,67.74
2023-05-24T12:09:08.635Z,68.11
2023-05-24T12:11:39.970Z,67.58
2023-05-24T12:14:17.901Z,67.02
2023-05-24T12:16:46.569Z,66.90
2023-05-24T12:19:32.468Z,73.19
2023-05-24T12:22:01.876Z,70.13
2023-05-24T12:24:31.378Z,70.58
2023-05-24T12:27:06.985Z,70.62
2023-05-24T12:29:40.301Z,69.59
2023-05-24T12:32:13.150Z,75.27
2023-05-24T12:34:43.489Z,77.67
2023-05-24T12:37:12.403Z,75.60
2023-05-24T12:39:42.373Z,71.33
2023-05-24T12:42:11.536Z,70.79
2023-05-24T12:44:39.282Z,73.17
2023-05-24T12:47:08.852Z,73.95
2023-05-24T12:49:36.343Z,71.92
2023-05-24T12:52:03.753Z,74.61
2023-05-24T12:54:31.203Z,62.96
2023-05-24T12:57:03.396Z,60.55
2023-05-24T12:59:30.980Z,64.32
2023-05-24T13:01:58.249Z,65.04
2023-05-24T13:04:30.581Z,67.14
2023-05-24T13:06:57.805Z,67.71
2023-05-24T13:09:26.285Z,65.49
2023-05-24T13:11:54.286Z,64.89
2023-05-24T13:14:22.277Z,65.04
2023-05-24T13:16:49.689Z,67.41
2023-05-24T13:19:17.356Z,68.85
2023-05-24T13:21:45.635Z,70.99
2023-05-24T13:24:16.446Z,64.39
2023-05-24T13:26:44.542Z,68.17
2023-05-24T13:31:42.061Z,72.86
2023-05-24T13:34:11.275Z,75.31
2023-05-24T13:36:39.260Z,73.17
2023-05-24T13:41:40.657Z,69.46
2023-05-24T13:44:08.635Z,66.82
2023-05-24T13:46:36.649Z,67.82
2023-05-24T13:49:04.532Z,65.46
2023-05-24T13:51:31.975Z,65.05
2023-05-24T13:53:59.700Z,61.25
2023-05-24T13:56:32.600Z,55.89
2023-05-24T13:59:01.617Z,51.86
2023-05-24T14:01:29.117Z,48.25
2023-05-24T14:03:56.503Z,48.27
2023-05-24T14:06:23.755Z,46.52
2023-05-24T14:08:51.297Z,47.07
2023-05-24T14:11:19.659Z,49.97
2023-05-24T14:16:17.330Z,60.12
2023-05-24T14:18:45.795Z,61.08
2023-05-24T14:21:12.922Z,63.40
2023-05-24T14:23:39.978Z,65.72
2023-05-24T14:26:07.665Z,67.78
2023-05-24T14:28:34.844Z,67.25
2023-05-24T14:31:02.408Z,65.88
2023-05-24T14:33:29.658Z,65.43
2023-05-24T14:35:57.173Z,70.05
2023-05-24T14:38:24.982Z,75.52
2023-05-24T14:40:52.803Z,76.82
2023-05-24T14:43:20.176Z,69.96
2023-05-24T14:45:47.582Z,59.66
2023-05-24T14:48:16.699Z,56.81
2023-05-24T14:50:43.849Z,53.68
2023-05-24T14:53:15.084Z,54.15
2023-05-24T14:55:43.708Z,52.79
2023-05-24T14:58:15.092Z,52.33
2023-05-24T15:00:43.311Z,52.07
2023-05-24T15:03:14.965Z,53.62
2023-05-24T15:05:43.107Z,50.21
2023-05-24T15:08:11.433Z,49.25
2023-05-24T15:10:39.406Z,51.85
2023-05-24T15:13:06.695Z,51.11
2023-05-24T15:15:33.845Z,47.85
2023-05-24T15:18:01.141Z,46.10
2023-05-24T15:20:28.647Z,47.46
2023-05-24T15:22:55.897Z,44.90
2023-05-24T15:25:23.040Z,43.47
2023-05-24T15:27:50.224Z,43.82
2023-05-24T15:30:19.763Z,48.19
2023-05-24T15:32:47.498Z,53.00
2023-05-24T15:35:15.304Z,57.94
2023-05-24T15:37:42.793Z,60.52
2023-05-24T15:40:11.240Z,60.38
2023-05-24T15:42:39.548Z,55.76
2023-05-24T15:45:07.411Z,53.31
2023-05-24T15:47:39.854Z,48.19
2023-05-24T15:50:09.086Z,47.52
2023-05-24T15:52:36.702Z,48.63
2023-05-24T15:55:04.603Z,49.76
2023-05-24T15:57:31.811Z,51.95
2023-05-24T15:59:58.943Z,54.56
2023-05-24T16:02:26.909Z,55.95
2023-05-24T16:04:54.463Z,58.34
2023-05-24T16:07:22.320Z,58.32
2023-05-24T16:09:52.798Z,59.74
2023-05-24T16:12:20.243Z,63.28
2023-05-24T16:14:47.459Z,66.86
2023-05-24T16:17:17.483Z,72.01
2023-05-24T16:19:49.364Z,75.72
2023-05-24T16:22:16.819Z,80.44
2023-05-24T16:24:44.910Z,83.69
2023-05-24T16:27:12.080Z,86.88
2023-05-24T16:29:39.426Z,88.12
2023-05-24T16:32:07.666Z,91.37
2023-05-24T16:34:44.797Z,90.65
2023-05-24T16:37:22.372Z,91.60
2023-05-24T16:39:49.530Z,93.51
2023-05-24T16:42:16.713Z,96.79
2023-05-24T16:44:43.904Z,96.43
2023-05-24T16:47:11.821Z,95.21
2023-05-24T16:49:39.034Z,93.55
2023-05-24T16:52:06.800Z,91.58
2023-05-24T16:54:33.885Z,91.80
2023-05-24T16:57:01.641Z,89.96
2023-05-24T16:59:28.893Z,92.57
2023-05-24T17:01:56.284Z,94.74
2023-05-24T17:04:23.463Z,89.71
2023-05-24T17:06:50.876Z,94.30
2023-05-24T17:09:18.016Z,93.22
2023-05-24T17:11:45.495Z,96.56
2023-05-24T17:14:12.648Z,96.68
2023-05-24T17:16:39.875Z,95.51
2023-05-24T17:19:07.048Z,93.95
2023-05-24T17:21:34.197Z,97.71
2023-05-24T17:24:01.324Z,100.00
2023-05-24T17:26:28.624Z,100.00
2023-05-24T17:28:56.379Z,100.00
2023-05-24T17:31:23.596Z,100.00
2023-05-24T17:33:51.116Z,100.00
2023-05-24T17:36:18.504Z,100.00
2023-05-24T17:38:45.714Z,100.00
2023-05-24T17:41:12.907Z,100.00
2023-05-24T17:43:40.595Z,100.00
2023-05-24T17:46:09.449Z,100.00
2023-05-24T17:48:37.728Z,100.00
2023-05-24T17:51:08.210Z,100.00
2023-05-24T17:53:37.290Z,100.00
2023-05-24T17:56:05.520Z,100.00
2023-05-24T17:58:35.736Z,100.00
2023-05-24T18:01:05.686Z,100.00
2023-05-24T18:03:34.182Z,100.00
2023-05-24T18:06:01.412Z,100.00
2023-05-24T18:08:28.637Z,100.00
2023-05-24T18:10:55.804Z,100.00
2023-05-24T18:13:22.999Z,100.00
2023-05-24T18:15:51.225Z,100.00
2023-05-24T18:18:18.720Z,100.00
2023-05-24T18:20:45.927Z,100.00
2023-05-24T18:23:13.838Z,100.00
2023-05-24T18:25:41.302Z,100.00
2023-05-24T18:28:08.663Z,100.00
2023-05-24T18:30:35.802Z,100.00
2023-05-24T18:33:07.909Z,100.00
2023-05-24T18:35:35.821Z,100.00
2023-05-24T18:38:04.796Z,100.00
2023-05-24T18:40:31.965Z,100.00
2023-05-24T18:42:59.131Z,100.00
2023-05-24T18:45:26.296Z,100.00
2023-05-24T18:47:54.222Z,100.00
2023-05-24T18:50:23.448Z,100.00
2023-05-24T18:52:50.877Z,100.00
2023-05-24T18:55:18.466Z,100.00
2023-05-24T18:57:45.605Z,100.00
2023-05-24T19:00:14.081Z,100.00
2023-05-24T19:02:41.490Z,100.00
2023-05-24T19:05:09.404Z,100.00
2023-05-24T19:07:37.271Z,100.00
2023-05-24T19:10:05.417Z,100.00
2023-05-24T19:12:32.775Z,100.00
2023-05-24T19:15:02.946Z,100.00
2023-05-24T19:17:30.310Z,100.00
2023-05-24T19:19:57.596Z,100.00
2023-05-24T19:22:26.383Z,100.00
2023-05-24T19:24:54.003Z,100.00
2023-05-24T19:27:21.859Z,100.00
2023-05-24T19:29:49.930Z,100.00
2023-05-24T19:32:25.841Z,100.00
2023-05-24T19:35:22.813Z,100.00
2023-05-24T19:37:55.712Z,100.00
2023-05-24T19:40:27.920Z,100.00
2023-05-24T19:42:55.287Z,100.00
2023-05-24T19:45:26.012Z,100.00
2023-05-24T19:47:53.447Z,100.00
2023-05-24T19:50:20.985Z,100.00
2023-05-24T19:52:48.208Z,100.00
2023-05-24T19:55:16.183Z,100.00
2023-05-24T19:57:45.998Z,100.00
2023-05-24T20:00:14.285Z,100.00
2023-05-24T20:02:41.713Z,100.00
2023-05-24T20:05:09.414Z,100.00
2023-05-24T20:07:37.548Z,100.00
2023-05-24T20:10:05.661Z,100.00
2023-05-24T20:12:34.757Z,100.00
2023-05-24T20:15:02.226Z,100.00
2023-05-24T20:17:29.917Z,100.00
2023-05-24T20:19:57.392Z,100.00
2023-05-24T20:22:24.706Z,100.00
2023-05-24T20:24:55.348Z,100.00
2023-05-24T20:27:22.741Z,100.00
2023-05-24T20:29:50.117Z,100.00
2023-05-24T20:32:17.645Z,100.00
2023-05-24T20:34:45.639Z,100.00
2023-05-24T20:37:13.132Z,100.00
2023-05-24T20:39:40.481Z,100.00
2023-05-24T20:42:11.201Z,100.00
2023-05-24T20:44:38.356Z,100.00
2023-05-24T20:47:08.585Z,100.00
2023-05-24T20:49:36.952Z,100.00
2023-05-24T20:52:04.850Z,100.00
2023-05-24T20:54:32.243Z,100.00
2023-05-24T20:56:59.960Z,100.00
2023-05-24T20:59:27.211Z,100.00
2023-05-24T21:01:54.532Z,100.00
2023-05-24T21:04:22.612Z,100.00
2023-05-24T21:06:49.983Z,100.00
2023-05-24T21:09:17.356Z,100.00
2023-05-24T21:11:45.724Z,100.00
2023-05-24T21:14:14.056Z,100.00
2023-05-24T21:16:41.435Z,100.00
2023-05-24T21:19:09.026Z,100.00
2023-05-24T21:21:38.035Z,100.00
2023-05-24T21:24:05.571Z,100.00
2023-05-24T21:26:35.826Z,100.00
2023-05-24T21:29:03.392Z,100.00
2023-05-24T21:31:32.130Z,100.00
2023-05-24T21:33:59.697Z,100.00
2023-05-24T21:36:29.252Z,100.00
2023-05-24T21:38:57.128Z,100.00
2023-05-24T21:41:24.647Z,100.00
2023-05-24T21:43:55.234Z,100.00
2023-05-24T21:46:22.527Z,100.00
2023-05-24T21:48:53.783Z,100.00
2023-05-24T21:51:30.955Z,100.00
2023-05-24T21:54:01.937Z,100.00
2023-05-24T21:56:30.105Z,100.00
2023-05-24T21:58:58.279Z,100.00
2023-05-24T22:01:26.425Z,100.00
2023-05-24T22:03:55.465Z,100.00
2023-05-24T22:06:24.414Z,100.00
2023-05-24T22:09:12.319Z,100.00
2023-05-24T22:11:41.483Z,100.00
2023-05-24T22:14:10.558Z,100.00
2023-05-24T22:16:44.250Z,100.00
2023-05-24T22:19:16.992Z,100.00
2023-05-24T22:21:51.027Z,100.00
2023-05-24T22:24:18.609Z,100.00
2023-05-24T22:26:47.284Z,100.00
2023-05-24T22:29:15.768Z,100.00
2023-05-24T22:31:44.821Z,100.00
2023-05-24T22:34:13.976Z,100.00
2023-05-24T22:36:42.173Z,100.00
2023-05-24T22:39:11.282Z,100.00
2023-05-24T22:41:38.568Z,100.00
2023-05-24T22:44:06.441Z,100.00
2023-05-24T22:46:34.451Z,100.00
2023-05-24T22:49:03.232Z,100.00
2023-05-24T22:51:30.507Z,100.00
2023-05-24T22:53:57.879Z,100.00
2023-05-24T22:56:27.038Z,100.00
2023-05-24T22:58:54.508Z,100.00
2023-05-24T23:01:22.365Z,100.00
2023-05-24T23:03:49.523Z,100.00
2023-05-24T23:06:17.912Z,100.00
2023-05-24T23:08:48.258Z,100.00
2023-05-24T23:11:17.451Z,100.00
2023-05-24T23:13:46.627Z,100.00
2023-05-24T23:16:18.227Z,100.00
2023-05-24T23:18:46.086Z,100.00
2023-05-24T23:21:15.278Z,100.00
2023-05-24T23:23:44.272Z,100.00
2023-05-24T23:26:11.767Z,100.00
2023-05-24T23:28:39.098Z,100.00
2023-05-24T23:31:09.950Z,100.00
2023-05-24T23:33:37.199Z,100.00
2023-05-24T23:36:04.704Z,100.00
2023-05-24T23:38:32.034Z,100.00
2023-05-24T23:40:59.460Z,100.00
2023-05-24T23:43:26.679Z,100.00
2023-05-24T23:45:53.860Z,100.00
2023-05-24T23:48:23.086Z,100.00
2023-05-24T23:50:54.415Z,100.00
2023-05-24T23:53:22.174Z,100.00
2023-05-24T23:55:49.298Z,100.00
2023-05-24T23:58:16.989Z,100.00
